Time;durP1;ratioP1;P1;durP2;ratioP2;P2;SDS_P1;SDS_P2;PMS_P1;PMS_P2;Temp;Humidity;BMP_temperature;BMP_pressure;BME280_temperature;BME280_humidity;BME280_pressure;Samples;Min_cycle;Max_cycle;Signal;HPM_P1;HPM_P2
2022/03/29 00:03:34;;;;;;;26.20;12.48;;;;;;;;;;10377741;28;20049;-73
2022/03/29 00:08:36;;;;;;;23.50;11.32;;;;;;;;;;10381355;28;20115;-74
2022/03/29 00:13:37;;;;;;;28.90;12.77;;;;;;;;;;10386244;28;20041;-74
2022/03/29 00:18:39;;;;;;;26.25;13.15;;;;;;;;;;10385410;28;20045;-73
2022/03/29 00:23:40;;;;;;;33.65;12.85;;;;;;;;;;10388454;28;20501;-74
2022/03/29 00:28:42;;;;;;;27.60;12.32;;;;;;;;;;10387292;28;20037;-73
2022/03/29 00:33:43;;;;;;;26.80;13.98;;;;;;;;;;10382002;28;20080;-73
2022/03/29 00:38:46;;;;;;;27.35;12.18;;;;;;;;;;10383151;28;20041;-73
2022/03/29 00:43:48;;;;;;;27.25;12.30;;;;;;;;;;10384086;28;20144;-73
2022/03/29 00:48:49;;;;;;;31.50;12.80;;;;;;;;;;10391255;28;20033;-73
2022/03/29 00:53:51;;;;;;;28.35;12.90;;;;;;;;;;10390853;28;20132;-73
2022/03/29 00:58:52;;;;;;;32.67;12.65;;;;;;;;;;10389808;28;20050;-73
2022/03/29 01:03:54;;;;;;;28.90;13.35;;;;;;;;;;10389407;28;20065;-73
2022/03/29 01:08:55;;;;;;;26.90;12.65;;;;;;;;;;10388518;28;20053;-73
2022/03/29 01:13:57;;;;;;;29.33;13.23;;;;;;;;;;10381673;28;20053;-73
2022/03/29 01:18:59;;;;;;;28.42;12.60;;;;;;;;;;10388633;28;20054;-73
2022/03/29 01:24:01;;;;;;;23.05;11.85;;;;;;;;;;10375659;28;20050;-73
2022/03/29 01:29:03;;;;;;;25.98;12.52;;;;;;;;;;10384396;28;20060;-73
2022/03/29 01:34:05;;;;;;;29.00;13.38;;;;;;;;;;10385664;28;20136;-73
2022/03/29 01:39:06;;;;;;;30.75;13.25;;;;;;;;;;10386443;28;20116;-73
2022/03/29 01:44:09;;;;;;;28.40;13.00;;;;;;;;;;10378688;28;20132;-73
2022/03/29 01:49:10;;;;;;;24.00;11.32;;;;;;;;;;10380262;28;20045;-73
2022/03/29 01:54:11;;;;;;;24.23;12.60;;;;;;;;;;10382061;28;20034;-73
2022/03/29 01:59:13;;;;;;;27.35;12.32;;;;;;;;;;10382629;28;20141;-73
2022/03/29 02:04:15;;;;;;;31.30;12.82;;;;;;;;;;10384119;28;20052;-73
2022/03/29 02:09:17;;;;;;;27.88;12.57;;;;;;;;;;10379310;28;20049;-73
2022/03/29 02:14:18;;;;;;;25.73;12.82;;;;;;;;;;10384917;28;20049;-73
2022/03/29 02:19:19;;;;;;;28.00;13.10;;;;;;;;;;10380029;28;20052;-73
2022/03/29 02:24:21;;;;;;;30.30;13.07;;;;;;;;;;10385614;28;20417;-72
2022/03/29 02:29:22;;;;;;;26.08;11.77;;;;;;;;;;10382686;28;20045;-73
2022/03/29 02:34:24;;;;;;;29.00;12.85;;;;;;;;;;10383935;28;20108;-73
2022/03/29 02:39:25;;;;;;;36.25;14.18;;;;;;;;;;10384692;28;20046;-73
2022/03/29 02:44:27;;;;;;;27.20;11.90;;;;;;;;;;10387196;28;20137;-72
2022/03/29 02:49:29;;;;;;;27.75;11.98;;;;;;;;;;10380226;28;20071;-73
2022/03/29 02:54:30;;;;;;;27.35;11.30;;;;;;;;;;10381680;28;20057;-72
2022/03/29 02:59:31;;;;;;;29.88;12.63;;;;;;;;;;10382573;28;20042;-73
2022/03/29 03:04:33;;;;;;;27.83;11.82;;;;;;;;;;10371516;28;20056;-72
2022/03/29 03:09:34;;;;;;;35.95;13.80;;;;;;;;;;10386976;28;20041;-72
2022/03/29 03:14:36;;;;;;;26.48;12.82;;;;;;;;;;10373779;28;20034;-72
2022/03/29 03:19:37;;;;;;;28.23;12.93;;;;;;;;;;10387839;28;20034;-72
2022/03/29 03:24:39;;;;;;;27.27;12.43;;;;;;;;;;10394866;28;20067;-72
2022/03/29 03:29:40;;;;;;;27.70;13.07;;;;;;;;;;10389442;28;20088;-73
2022/03/29 03:34:42;;;;;;;28.45;12.55;;;;;;;;;;10392709;28;20639;-72
2022/03/29 03:39:43;;;;;;;27.20;12.50;;;;;;;;;;10393647;28;20041;-74
2022/03/29 03:44:44;;;;;;;29.27;13.15;;;;;;;;;;10387350;28;20042;-72
2022/03/29 03:49:46;;;;;;;33.20;12.77;;;;;;;;;;10384409;28;20042;-72
2022/03/29 03:54:47;;;;;;;25.30;12.38;;;;;;;;;;10390752;28;20505;-72
2022/03/29 03:59:51;;;;;;;27.38;12.68;;;;;;;;;;10383283;28;20128;-72
2022/03/29 04:04:52;;;;;;;28.25;11.55;;;;;;;;;;10386116;28;20038;-72
2022/03/29 04:09:54;;;;;;;32.78;13.00;;;;;;;;;;10390231;28;20057;-72
2022/03/29 04:14:55;;;;;;;31.38;12.95;;;;;;;;;;10389187;28;20047;-72
2022/03/29 04:19:57;;;;;;;28.35;13.40;;;;;;;;;;10389129;28;20048;-72
2022/03/29 04:24:58;;;;;;;29.52;12.20;;;;;;;;;;10386543;28;20146;-72
2022/03/29 04:30:00;;;;;;;27.63;12.65;;;;;;;;;;10378959;28;20422;-72
2022/03/29 04:35:01;;;;;;;27.95;12.48;;;;;;;;;;10390547;28;20038;-72
2022/03/29 04:40:08;;;;;;;28.55;13.32;;;;;;;;;;10385988;28;20383;-72
2022/03/29 04:45:10;;;;;;;34.60;14.00;;;;;;;;;;10389104;28;20050;-72
2022/03/29 04:50:12;;;;;;;25.55;11.73;;;;;;;;;;10377276;28;20054;-72
2022/03/29 04:55:14;;;;;;;36.25;14.27;;;;;;;;;;10381391;28;20045;-72
2022/03/29 05:00:17;;;;;;;31.38;12.70;;;;;;;;;;10383502;28;20446;-72
2022/03/29 05:05:19;;;;;;;29.40;13.40;;;;;;;;;;10379293;28;20084;-72
2022/03/29 05:10:20;;;;;;;28.00;13.20;;;;;;;;;;10386605;28;20133;-72
2022/03/29 05:15:22;;;;;;;32.60;12.80;;;;;;;;;;10388166;28;20034;-71
2022/03/29 05:20:24;;;;;;;31.73;13.43;;;;;;;;;;10389743;28;20044;-71
2022/03/29 05:25:26;;;;;;;33.58;12.35;;;;;;;;;;10383675;28;20056;-71
2022/03/29 05:30:27;;;;;;;30.63;12.88;;;;;;;;;;10390104;28;20136;-73
2022/03/29 05:35:30;;;;;;;36.00;13.48;;;;;;;;;;10387879;28;20045;-73
2022/03/29 05:40:32;;;;;;;31.30;13.23;;;;;;;;;;10380029;28;20127;-72
2022/03/29 05:45:33;;;;;;;28.35;12.05;;;;;;;;;;10381457;28;20412;-72
2022/03/29 05:50:34;;;;;;;32.53;12.20;;;;;;;;;;10373258;28;20252;-73
2022/03/29 05:55:36;;;;;;;28.83;12.82;;;;;;;;;;10375958;28;20042;-72
2022/03/29 06:00:38;;;;;;;31.88;13.30;;;;;;;;;;10380980;28;20120;-72
2022/03/29 06:05:42;;;;;;;26.67;12.23;;;;;;;;;;10359188;28;20052;-72
2022/03/29 06:10:43;;;;;;;32.05;13.77;;;;;;;;;;10360387;28;20041;-72
2022/03/29 06:15:45;;;;;;;35.20;13.75;;;;;;;;;;10368762;28;20037;-72
2022/03/29 06:20:47;;;;;;;30.33;13.68;;;;;;;;;;10375788;28;20040;-72
2022/03/29 06:25:49;;;;;;;30.58;12.40;;;;;;;;;;10387633;28;20042;-72
2022/03/29 06:30:51;;;;;;;30.92;13.68;;;;;;;;;;10358244;28;20088;-72
2022/03/29 06:35:52;;;;;;;26.13;13.30;;;;;;;;;;10345284;28;20040;-72
2022/03/29 06:40:54;;;;;;;30.13;13.68;;;;;;;;;;10344068;28;20232;-70
2022/03/29 06:45:55;;;;;;;36.42;13.35;;;;;;;;;;10341996;28;20049;-71
2022/03/29 06:50:58;;;;;;;31.88;13.00;;;;;;;;;;10345095;28;20494;-71
2022/03/29 06:55:59;;;;;;;28.20;13.40;;;;;;;;;;10358229;28;20038;-71
2022/03/29 07:01:00;;;;;;;28.25;13.23;;;;;;;;;;10376115;28;20056;-71
2022/03/29 07:06:05;;;;;;;27.00;13.05;;;;;;;;;;10394427;28;20614;-71
2022/03/29 07:11:21;;;;;;;33.88;13.57;;;;;;;;;;10372688;28;20957;-71
2022/03/29 07:16:22;;;;;;;30.70;12.77;;;;;;;;;;10380509;28;20044;-71
2022/03/29 07:21:24;;;;;;;33.92;13.52;;;;;;;;;;10391026;28;20053;-72
2022/03/29 07:26:25;;;;;;;34.30;13.30;;;;;;;;;;10376290;28;20053;-71
2022/03/29 07:31:27;;;;;;;31.00;13.88;;;;;;;;;;10378374;28;20064;-71
2022/03/29 07:36:29;;;;;;;32.00;13.35;;;;;;;;;;10386726;28;20994;-71
2022/03/29 07:41:30;;;;;;;27.98;13.43;;;;;;;;;;10364246;28;20049;-70
2022/03/29 07:46:32;;;;;;;33.83;12.43;;;;;;;;;;10374730;28;20049;-69
2022/03/29 07:51:34;;;;;;;34.03;12.65;;;;;;;;;;10379132;28;20045;-71
2022/03/29 07:56:35;;;;;;;30.00;11.43;;;;;;;;;;10381517;28;20502;-71
2022/03/29 08:01:36;;;;;;;27.73;10.07;;;;;;;;;;10351760;28;20532;-68
2022/03/29 08:06:38;;;;;;;29.95;10.65;;;;;;;;;;10351370;28;20038;-65
2022/03/29 08:11:40;;;;;;;22.25;8.95;;;;;;;;;;10364645;28;20049;-71
2022/03/29 08:16:41;;;;;;;25.17;8.90;;;;;;;;;;10365041;28;20040;-71
2022/03/29 08:21:49;;;;;;;24.50;9.18;;;;;;;;;;10347435;28;20383;-72
2022/03/29 08:26:52;;;;;;;26.42;8.80;;;;;;;;;;10347187;28;20111;-71
2022/03/29 08:32:00;;;;;;;26.48;8.68;;;;;;;;;;10347875;28;20169;-70
2022/03/29 08:37:01;;;;;;;21.92;7.85;;;;;;;;;;10349789;28;20045;-72
2022/03/29 08:42:07;;;;;;;20.00;6.75;;;;;;;;;;10344889;28;20061;-70
2022/03/29 08:47:16;;;;;;;21.35;6.20;;;;;;;;;;10350413;28;20045;-72
2022/03/29 08:52:20;;;;;;;19.80;6.57;;;;;;;;;;10348550;28;20053;-72
2022/03/29 08:57:21;;;;;;;23.33;6.20;;;;;;;;;;10351891;28;20053;-71
2022/03/29 09:02:23;;;;;;;25.70;6.25;;;;;;;;;;10357931;28;20038;-72
2022/03/29 09:07:24;;;;;;;19.42;6.03;;;;;;;;;;10351443;28;20539;-71
2022/03/29 09:12:26;;;;;;;16.95;5.97;;;;;;;;;;10349507;28;20045;-72
2022/03/29 09:17:34;;;;;;;19.20;6.10;;;;;;;;;;10353713;28;20067;-71
2022/03/29 09:22:42;;;;;;;21.73;6.63;;;;;;;;;;10373984;28;20508;-71
2022/03/29 09:27:48;;;;;;;19.48;5.75;;;;;;;;;;10354999;28;20042;-71
2022/03/29 09:33:01;;;;;;;19.00;5.68;;;;;;;;;;10367486;28;20053;-71
2022/03/29 09:38:18;;;;;;;14.25;5.53;;;;;;;;;;10352309;28;20042;-71
2022/03/29 09:43:21;;;;;;;17.60;5.30;;;;;;;;;;10374762;28;20041;-71
2022/03/29 09:48:26;;;;;;;20.55;5.82;;;;;;;;;;10393955;28;20077;-72
2022/03/29 09:53:33;;;;;;;20.40;6.00;;;;;;;;;;10371357;28;20046;-71
2022/03/29 09:58:35;;;;;;;15.23;4.72;;;;;;;;;;10376429;28;20516;-70
2022/03/29 10:03:36;;;;;;;16.67;5.20;;;;;;;;;;10386105;28;20052;-70
2022/03/29 10:14:00;;;;;;;18.60;5.43;;;;;;;;;;10385854;28;20125;-71
2022/03/29 10:19:01;;;;;;;23.02;4.97;;;;;;;;;;10388301;28;20414;-72
2022/03/29 10:24:03;;;;;;;19.52;4.88;;;;;;;;;;10382340;28;20046;-71
2022/03/29 10:29:06;;;;;;;19.08;4.60;;;;;;;;;;10383504;28;20061;-70
2022/03/29 10:34:18;;;;;;;19.38;5.10;;;;;;;;;;10376290;28;20053;-71
2022/03/29 10:39:21;;;;;;;18.65;4.80;;;;;;;;;;10387663;28;20048;-70
2022/03/29 10:44:23;;;;;;;16.25;4.20;;;;;;;;;;10387159;28;20049;-70
2022/03/29 10:49:25;;;;;;;18.10;6.10;;;;;;;;;;10378024;28;20077;-72
2022/03/29 10:54:28;;;;;;;16.33;4.05;;;;;;;;;;10349856;28;20073;-72
2022/03/29 10:59:30;;;;;;;12.95;4.15;;;;;;;;;;10352790;28;20044;-72
2022/03/29 11:04:33;;;;;;;16.92;5.15;;;;;;;;;;10377239;28;20053;-71
2022/03/29 11:09:36;;;;;;;15.50;3.83;;;;;;;;;;10361260;28;20085;-70
2022/03/29 11:14:39;;;;;;;14.68;3.78;;;;;;;;;;10347215;28;20440;-70
2022/03/29 11:19:42;;;;;;;18.45;4.40;;;;;;;;;;10344518;28;20044;-73
2022/03/29 11:24:44;;;;;;;18.58;4.28;;;;;;;;;;10341412;28;20156;-72
2022/03/29 11:29:45;;;;;;;16.08;4.18;;;;;;;;;;10375215;28;20041;-73
2022/03/29 11:34:50;;;;;;;19.40;4.88;;;;;;;;;;10382082;28;20045;-73
2022/03/29 11:39:52;;;;;;;15.18;4.65;;;;;;;;;;10373642;28;20049;-73
2022/03/29 11:44:54;;;;;;;16.13;4.22;;;;;;;;;;10375509;28;20061;-73
2022/03/29 11:49:55;;;;;;;16.80;4.13;;;;;;;;;;10351843;28;20050;-73
2022/03/29 11:54:56;;;;;;;18.23;4.43;;;;;;;;;;10353654;28;20629;-73
2022/03/29 11:59:58;;;;;;;13.30;4.22;;;;;;;;;;10351718;28;20605;-74
2022/03/29 12:04:59;;;;;;;21.42;4.70;;;;;;;;;;10348828;28;20042;-73
2022/03/29 12:10:01;;;;;;;17.63;4.75;;;;;;;;;;10352885;28;20658;-70
2022/03/29 12:15:04;;;;;;;25.30;4.57;;;;;;;;;;10348441;28;20525;-70
2022/03/29 12:20:05;;;;;;;16.02;4.72;;;;;;;;;;10346733;28;20057;-69
2022/03/29 12:25:09;;;;;;;16.35;4.20;;;;;;;;;;10345909;28;20050;-70
2022/03/29 12:30:11;;;;;;;14.13;5.47;;;;;;;;;;10343860;28;20505;-70
2022/03/29 12:35:18;;;;;;;15.82;4.15;;;;;;;;;;10345978;28;20068;-70
2022/03/29 12:40:19;;;;;;;21.83;5.75;;;;;;;;;;10347839;28;20129;-70
2022/03/29 12:45:21;;;;;;;17.27;4.38;;;;;;;;;;10352651;28;20041;-69
2022/03/29 12:50:22;;;;;;;18.98;4.78;;;;;;;;;;10352134;28;20034;-70
2022/03/29 12:55:23;;;;;;;18.88;6.25;;;;;;;;;;10350638;28;20610;-70
2022/03/29 13:00:26;;;;;;;15.10;4.95;;;;;;;;;;10345442;28;20038;-70
2022/03/29 13:05:33;;;;;;;17.98;4.72;;;;;;;;;;10356327;28;20057;-70
2022/03/29 13:10:34;;;;;;;18.90;5.13;;;;;;;;;;10348369;28;20327;-70
2022/03/29 13:15:43;;;;;;;21.55;5.43;;;;;;;;;;10349693;28;20084;-70
2022/03/29 13:20:45;;;;;;;18.20;6.30;;;;;;;;;;10350313;28;20056;-68
2022/03/29 13:25:46;;;;;;;20.33;5.45;;;;;;;;;;10390637;28;20117;-70
2022/03/29 13:30:49;;;;;;;19.25;4.93;;;;;;;;;;10371146;28;20042;-68
2022/03/29 13:35:50;;;;;;;15.15;5.43;;;;;;;;;;10380163;28;20108;-67
2022/03/29 13:40:52;;;;;;;16.08;4.97;;;;;;;;;;10383650;28;20041;-67
2022/03/29 13:45:53;;;;;;;17.83;5.55;;;;;;;;;;10374360;28;20420;-68
2022/03/29 13:50:55;;;;;;;26.85;6.32;;;;;;;;;;10372299;28;20045;-68
2022/03/29 13:55:57;;;;;;;18.73;6.00;;;;;;;;;;10386618;28;20148;-68
2022/03/29 14:00:59;;;;;;;21.38;6.05;;;;;;;;;;10388662;28;20065;-68
2022/03/29 14:06:01;;;;;;;17.95;5.53;;;;;;;;;;10380192;28;20049;-73
2022/03/29 14:11:03;;;;;;;17.27;5.85;;;;;;;;;;10377375;28;20132;-72
2022/03/29 14:16:05;;;;;;;17.95;6.00;;;;;;;;;;10374063;28;20132;-69
2022/03/29 14:21:06;;;;;;;20.40;5.75;;;;;;;;;;10369743;28;20056;-70
2022/03/29 14:26:07;;;;;;;16.98;5.20;;;;;;;;;;10370113;28;20052;-68
2022/03/29 14:31:09;;;;;;;22.95;6.50;;;;;;;;;;10378113;28;20060;-69
2022/03/29 14:36:11;;;;;;;16.75;5.72;;;;;;;;;;10384346;28;20065;-66
2022/03/29 14:41:13;;;;;;;19.83;6.53;;;;;;;;;;10377326;28;20046;-67
2022/03/29 14:46:14;;;;;;;15.60;5.38;;;;;;;;;;10373030;28;20041;-70
2022/03/29 14:51:16;;;;;;;17.85;5.88;;;;;;;;;;10384032;28;20079;-70
2022/03/29 14:56:17;;;;;;;20.13;5.63;;;;;;;;;;10381785;28;20542;-70
2022/03/29 15:01:19;;;;;;;16.52;6.07;;;;;;;;;;10378845;28;20037;-70
2022/03/29 15:06:21;;;;;;;18.58;5.28;;;;;;;;;;10391923;28;20042;-71
2022/03/29 15:11:22;;;;;;;16.33;5.03;;;;;;;;;;10388531;28;20397;-70
2022/03/29 15:16:26;;;;;;;14.05;5.38;;;;;;;;;;10403447;28;20064;-70
2022/03/29 15:21:28;;;;;;;18.75;4.80;;;;;;;;;;10402880;28;20049;-69
2022/03/29 15:26:29;;;;;;;13.20;4.72;;;;;;;;;;10404599;28;20046;-66
2022/03/29 15:31:30;;;;;;;17.15;4.95;;;;;;;;;;10403870;28;20046;-65
2022/03/29 15:36:35;;;;;;;16.27;5.03;;;;;;;;;;10409417;28;20049;-70
2022/03/29 15:41:36;;;;;;;12.65;4.78;;;;;;;;;;10403860;28;20050;-71
2022/03/29 15:46:37;;;;;;;16.20;4.28;;;;;;;;;;10407937;28;20048;-71
2022/03/29 15:51:39;;;;;;;16.38;5.05;;;;;;;;;;10402601;28;20056;-65
2022/03/29 15:56:40;;;;;;;18.83;5.75;;;;;;;;;;10379363;28;20664;-68
2022/03/29 16:01:42;;;;;;;17.83;5.22;;;;;;;;;;10385105;28;20038;-69
2022/03/29 16:06:44;;;;;;;14.68;5.18;;;;;;;;;;10388878;28;20046;-69
2022/03/29 16:11:50;;;;;;;14.63;4.90;;;;;;;;;;10388543;28;20622;-68
2022/03/29 16:16:51;;;;;;;14.88;4.47;;;;;;;;;;10390430;28;20501;-69
2022/03/29 16:21:52;;;;;;;16.08;5.28;;;;;;;;;;10393547;28;20041;-70
2022/03/29 16:26:54;;;;;;;13.15;5.30;;;;;;;;;;10390643;28;20148;-69
2022/03/29 16:31:55;;;;;;;15.07;5.00;;;;;;;;;;10382367;28;20564;-70
2022/03/29 16:36:58;;;;;;;21.85;5.00;;;;;;;;;;10391779;28;20729;-70
2022/03/29 16:42:00;;;;;;;15.82;4.88;;;;;;;;;;10376117;28;20038;-70
2022/03/29 16:47:02;;;;;;;11.55;4.65;;;;;;;;;;10360258;28;20042;-70
2022/03/29 16:52:04;;;;;;;15.35;5.05;;;;;;;;;;10379669;28;20133;-70
2022/03/29 16:57:05;;;;;;;12.75;4.40;;;;;;;;;;10350981;28;20490;-70
2022/03/29 17:02:09;;;;;;;14.40;4.05;;;;;;;;;;10350001;28;20041;-70
2022/03/29 17:07:11;;;;;;;14.73;3.88;;;;;;;;;;10379691;28;20052;-69
2022/03/29 17:12:12;;;;;;;19.10;4.25;;;;;;;;;;10389842;28;20049;-70
2022/03/29 17:17:15;;;;;;;18.58;4.03;;;;;;;;;;10368844;28;20104;-70
2022/03/29 17:22:18;;;;;;;13.55;3.83;;;;;;;;;;10375646;28;20046;-70
2022/03/29 17:27:19;;;;;;;10.10;3.28;;;;;;;;;;10372093;28;20053;-69
2022/03/29 17:32:21;;;;;;;17.92;3.95;;;;;;;;;;10384585;28;20068;-70
2022/03/29 17:37:22;;;;;;;13.55;3.83;;;;;;;;;;10364539;28;20050;-70
2022/03/29 17:42:24;;;;;;;13.00;3.95;;;;;;;;;;10344381;28;20057;-71
2022/03/29 17:47:25;;;;;;;12.07;3.40;;;;;;;;;;10354321;28;20328;-71
2022/03/29 17:52:27;;;;;;;10.15;3.83;;;;;;;;;;10387045;28;20084;-69
2022/03/29 17:57:28;;;;;;;9.70;3.60;;;;;;;;;;10374442;28;20073;-71
2022/03/29 18:02:30;;;;;;;18.15;4.35;;;;;;;;;;10386692;28;20033;-70
2022/03/29 18:07:31;;;;;;;11.15;3.80;;;;;;;;;;10377713;28;20103;-70
2022/03/29 18:12:35;;;;;;;12.35;3.17;;;;;;;;;;10377470;28;20079;-70
2022/03/29 18:17:38;;;;;;;9.63;2.88;;;;;;;;;;10378526;28;20290;-70
2022/03/29 18:22:40;;;;;;;10.32;3.22;;;;;;;;;;10374246;28;20409;-71
2022/03/29 18:27:41;;;;;;;8.63;2.97;;;;;;;;;;10384803;28;20116;-70
2022/03/29 18:32:43;;;;;;;12.65;3.35;;;;;;;;;;10384495;28;20137;-70
2022/03/29 18:37:45;;;;;;;10.88;2.72;;;;;;;;;;10387931;28;20527;-70
2022/03/29 18:42:46;;;;;;;11.45;3.15;;;;;;;;;;10384972;28;20516;-70
2022/03/29 18:47:48;;;;;;;10.68;2.85;;;;;;;;;;10383373;28;20047;-70
2022/03/29 18:52:49;;;;;;;13.55;3.15;;;;;;;;;;10379098;28;20045;-70
2022/03/29 18:57:51;;;;;;;10.13;2.83;;;;;;;;;;10389975;28;20658;-70
2022/03/29 19:02:53;;;;;;;16.60;4.25;;;;;;;;;;10393846;28;20377;-69
2022/03/29 19:07:55;;;;;;;15.60;3.80;;;;;;;;;;10395152;28;20147;-70
2022/03/29 19:12:59;;;;;;;13.52;3.13;;;;;;;;;;10393493;28;20141;-70
2022/03/29 19:18:01;;;;;;;12.98;2.72;;;;;;;;;;10394434;28;20132;-70
2022/03/29 19:23:03;;;;;;;16.75;3.05;;;;;;;;;;10393317;28;20075;-70
2022/03/29 19:28:06;;;;;;;8.20;2.53;;;;;;;;;;10394433;28;20172;-69
2022/03/29 19:33:08;;;;;;;12.02;3.63;;;;;;;;;;10395214;28;20455;-70
2022/03/29 19:38:09;;;;;;;17.48;3.30;;;;;;;;;;10388442;28;20050;-69
2022/03/29 19:43:21;;;;;;;23.17;4.18;;;;;;;;;;10394076;28;20041;-70
2022/03/29 19:49:44;;;;;;;11.45;3.05;;;;;;;;;;10379882;27;20622;-68
2022/03/29 19:54:47;;;;;;;9.38;2.70;;;;;;;5.91;nan;100635.63;10443407;27;20056;-69
2022/03/29 19:59:49;;;;;;;8.63;2.47;;;;;;;5.92;nan;100645.19;10473789;28;20047;-68
2022/03/29 20:04:57;;;;;;;7.93;2.58;;;;;;;5.94;nan;100653.03;10473745;28;20037;-69
2022/03/29 20:10:00;;;;;;;10.23;2.50;;;;;;;5.81;nan;100600.66;10453574;28;20052;-68
2022/03/29 20:15:02;;;;;;;10.05;2.65;;;;;;;;;;10433115;28;20052;-69
2022/03/29 20:20:03;;;;;;;11.32;2.72;;;;;;;;;;10431910;28;20053;-69
2022/03/29 20:25:05;;;;;;;10.73;2.75;;;;;;;;;;10421993;28;20503;-69
2022/03/29 20:30:07;;;;;;;11.07;2.47;;;;;;;;;;10436358;28;20037;-69
2022/03/29 20:35:09;;;;;;;8.13;2.75;;;;;;;5.19;nan;100352.75;10442109;28;20045;-70
2022/03/29 20:40:11;;;;;;;12.65;2.95;;;;;;;;;;10443827;28;20421;-70
2022/03/29 20:45:13;;;;;;;10.85;2.60;;;;;;;;;;10420089;28;20043;-70
2022/03/29 20:50:14;;;;;;;6.35;2.28;;;;;;;;;;10428887;28;20063;-70
2022/03/29 20:55:16;;;;;;;10.20;2.95;;;;;;;;;;10427517;28;20119;-69
2022/03/29 21:00:17;;;;;;;10.70;3.47;;;;;;;4.71;nan;100167.91;10415582;28;20060;-70
2022/03/29 21:05:19;;;;;;;17.17;3.95;;;;;;;;;;10409381;28;20048;-69
2022/03/29 21:10:20;;;;;;;14.27;3.72;;;;;;;;;;10419313;28;20052;-70
2022/03/29 21:15:22;;;;;;;11.38;3.63;;;;;;;;;;10412887;28;20045;-70
2022/03/29 21:20:24;;;;;;;11.07;3.35;;;;;;;4.56;nan;100094.84;10404160;28;20052;-70
2022/03/29 21:25:26;;;;;;;11.93;3.05;;;;;;;;;;10410306;28;20049;-69
2022/03/29 21:30:27;;;;;;;10.13;2.97;;;;;;;;;;10404099;28;20045;-70
2022/03/29 21:35:29;;;;;;;10.13;3.10;;;;;;;;;;10393202;28;20048;-69
2022/03/29 21:40:30;;;;;;;14.40;3.28;;;;;;;;;;10393724;28;20099;-69
2022/03/29 21:45:32;;;;;;;10.13;3.92;;;;;;;;;;10392728;28;21444;-69
2022/03/29 21:50:34;;;;;;;14.55;5.35;;;;;;;;;;10397716;28;20478;-69
2022/03/29 21:55:57;;;;;;;14.13;5.53;;;;;;;;;;10408618;28;20045;-69
2022/03/29 22:01:17;;;;;;;10.45;4.40;;;;;;;;;;10411759;28;21005;-69
2022/03/29 22:06:38;;;;;;;13.48;3.88;;;;;;;;;;10418004;28;20483;-70
2022/03/29 22:11:39;;;;;;;10.73;3.25;;;;;;;;;;10397585;28;20042;-71
2022/03/29 22:16:41;;;;;;;15.70;3.30;;;;;;;;;;10402652;28;20049;-71
2022/03/29 22:21:43;;;;;;;11.60;2.90;;;;;;;;;;10413727;28;20133;-70
2022/03/29 22:26:44;;;;;;;12.43;3.25;;;;;;;;;;10388285;28;20045;-70
2022/03/29 22:31:45;;;;;;;11.23;3.65;;;;;;;;;;10394610;28;20132;-70
2022/03/29 22:36:47;;;;;;;13.20;3.88;;;;;;;;;;10393786;28;20042;-71
2022/03/29 22:41:48;;;;;;;22.38;5.85;;;;;;;;;;10399022;28;20046;-71
2022/03/29 22:46:50;;;;;;;18.75;6.57;;;;;;;;;;10403583;28;20038;-71
2022/03/29 22:51:51;;;;;;;26.15;7.25;;;;;;;;;;10407388;28;20544;-70
2022/03/29 23:02:14;;;;;;;19.48;4.28;;;;;;;;;;10409481;28;20581;-70
2022/03/29 23:07:16;;;;;;;17.40;5.00;;;;;;;;;;10400005;28;20053;-70
2022/03/29 23:12:17;;;;;;;19.52;5.95;;;;;;;;;;10404415;28;20052;-71
2022/03/29 23:17:19;;;;;;;18.35;6.03;;;;;;;;;;10387028;28;20045;-71
2022/03/29 23:22:20;;;;;;;22.05;5.22;;;;;;;;;;10388135;28;20103;-71
2022/03/29 23:27:22;;;;;;;15.85;4.60;;;;;;;;;;10394486;28;20315;-70
2022/03/29 23:32:23;;;;;;;13.55;4.35;;;;;;;;;;10399669;28;20135;-70
2022/03/29 23:37:25;;;;;;;8.95;3.33;;;;;;;;;;10399687;28;20036;-70
2022/03/29 23:42:26;;;;;;;11.98;3.10;;;;;;;;;;10401493;28;20049;-71
2022/03/29 23:47:28;;;;;;;12.05;3.20;;;;;;;;;;10409055;28;20653;-70
2022/03/29 23:52:29;;;;;;;9.02;3.20;;;;;;;;;;10394857;28;20822;-70
2022/03/29 23:57:36;;;;;;;9.57;3.22;;;;;;;;;;10399424;28;20049;-70
